Time;durP1;ratioP1;P1;durP2;ratioP2;P2;SDS_P1;SDS_P2;PMS_P1;PMS_P2;Temp;Humidity;BMP_temperature;BMP_pressure;BME280_temperature;BME280_humidity;BME280_pressure;Samples;Min_cycle;Max_cycle;Signal;HPM_P1;HPM_P2
2024/01/14 00:02:09;;;;;;;15.47;2.63;;;4.60;99.90;;;;;;5031581;28;20189;-50
2024/01/14 00:04:35;;;;;;;15.10;2.33;;;4.50;1.00;;;;;;5030418;28;20781;-50
2024/01/14 00:07:00;;;;;;;13.10;2.40;;;4.60;99.90;;;;;;5030916;28;20224;-50
2024/01/14 00:09:26;;;;;;;15.70;2.43;;;4.60;1.00;;;;;;5030438;28;20243;-50
2024/01/14 00:11:51;;;;;;;17.97;2.20;;;4.80;99.90;;;;;;5030723;28;20187;-49
2024/01/14 00:14:17;;;;;;;20.37;2.63;;;4.60;1.00;;;;;;5030908;28;20635;-52
2024/01/14 00:16:42;;;;;;;11.20;2.43;;;4.50;1.00;;;;;;5030331;28;20708;-49
2024/01/14 00:19:09;;;;;;;24.87;2.70;;;4.50;1.00;;;;;;5031612;28;20296;-49
2024/01/14 00:21:35;;;;;;;10.10;2.63;;;4.70;91.70;;;;;;5029685;28;20572;-49
2024/01/14 00:24:03;;;;;;;15.77;3.03;;;4.80;99.90;;;;;;5030213;28;20295;-50
2024/01/14 00:26:29;;;;;;;9.47;2.20;;;4.80;99.90;;;;;;5031509;28;20413;-49
2024/01/14 00:28:57;;;;;;;27.83;3.10;;;4.70;1.00;;;;;;5030636;28;20784;-49
2024/01/14 00:31:22;;;;;;;18.13;2.20;;;4.70;1.00;;;;;;5030811;28;20414;-49
2024/01/14 00:33:49;;;;;;;19.17;2.37;;;4.70;99.90;;;;;;5031911;28;20451;-51
2024/01/14 00:36:15;;;;;;;23.23;2.67;;;5.00;99.90;;;;;;5035042;28;20211;-50
2024/01/14 00:38:41;;;;;;;15.73;2.40;;;5.10;99.90;;;;;;5034130;28;20413;-50
2024/01/14 00:41:07;;;;;;;17.53;3.10;;;5.00;1.00;;;;;;5033849;28;20824;-50
2024/01/14 00:43:33;;;;;;;15.87;2.30;;;4.80;99.30;;;;;;5033807;28;20273;-50
2024/01/14 00:45:58;;;;;;;15.07;2.43;;;5.10;1.00;;;;;;5034651;28;20855;-51
2024/01/14 00:48:24;;;;;;;17.20;2.77;;;5.00;99.90;;;;;;5034951;28;20551;-50
2024/01/14 00:50:49;;;;;;;13.13;2.30;;;5.10;1.00;;;;;;5033318;28;20257;-50
2024/01/14 00:53:15;;;;;;;16.73;2.70;;;5.40;1.00;;;;;;5033918;28;20209;-50
2024/01/14 00:55:40;;;;;;;15.40;2.90;;;5.40;20.30;;;;;;5033806;28;20214;-51
2024/01/14 00:58:06;;;;;;;15.37;3.07;;;5.50;94.20;;;;;;5034541;28;20191;-50
2024/01/14 01:00:31;;;;;;;14.70;2.50;;;5.60;1.00;;;;;;5033820;28;20712;-51
2024/01/14 01:02:57;;;;;;;12.40;2.40;;;5.60;99.90;;;;;;5034327;28;20197;-50
2024/01/14 01:05:22;;;;;;;22.03;2.87;;;5.50;98.00;;;;;;5033551;28;20545;-50
2024/01/14 01:07:48;;;;;;;12.57;2.47;;;5.40;99.90;;;;;;5032129;28;20183;-50
2024/01/14 01:10:14;;;;;;;29.07;2.97;;;5.40;1.00;;;;;;5034766;28;20184;-49
2024/01/14 01:12:40;;;;;;;16.20;3.00;;;5.30;1.00;;;;;;5034333;28;20187;-50
2024/01/14 01:15:06;;;;;;;18.03;3.13;;;5.00;1.00;;;;;;5033749;28;20218;-50
2024/01/14 01:17:32;;;;;;;15.73;2.60;;;5.10;99.90;;;;;;5034596;28;20186;-51
2024/01/14 01:20:02;;;;;;;17.13;3.33;;;4.90;99.90;;;;;;5034893;28;20440;-50
2024/01/14 01:22:28;;;;;;;22.83;3.47;;;5.10;99.90;;;;;;5034833;28;20433;-50
2024/01/14 01:24:54;;;;;;;12.37;3.13;;;5.20;1.00;;;;;;5034356;28;20429;-50
2024/01/14 01:27:20;;;;;;;19.73;3.20;;;5.10;1.00;;;;;;5034439;28;20179;-50
2024/01/14 01:29:45;;;;;;;12.87;2.57;;;5.00;1.00;;;;;;5034084;28;20530;-50
2024/01/14 01:32:11;;;;;;;18.87;3.60;;;4.70;99.90;;;;;;5034347;28;20251;-49
2024/01/14 01:34:37;;;;;;;18.47;2.90;;;4.60;99.90;;;;;;5034114;28;20414;-50
2024/01/14 01:37:06;;;;;;;25.40;3.20;;;4.60;1.00;;;;;;5034234;28;20223;-50
2024/01/14 01:39:31;;;;;;;20.20;3.20;;;4.50;1.00;;;;;;5033738;28;20180;-50
2024/01/14 01:41:57;;;;;;;18.33;3.40;;;4.40;1.00;;;;;;5034215;28;20423;-49
2024/01/14 01:44:24;;;;;;;30.37;3.03;;;4.40;1.00;;;;;;5033533;28;20187;-49
2024/01/14 01:46:50;;;;;;;12.43;2.50;;;4.30;99.90;;;;;;5033786;28;20440;-49
2024/01/14 01:49:16;;;;;;;14.13;2.63;;;4.30;99.90;;;;;;5033839;28;20996;-49
2024/01/14 01:51:47;;;;;;;11.17;2.07;;;4.50;1.00;;;;;;5032209;28;20512;-49
2024/01/14 01:54:32;;;;;;;11.43;1.60;;;4.30;99.90;;;;;;5034000;28;20421;-49
2024/01/14 01:56:58;;;;;;;12.50;1.70;;;4.30;99.90;;;;;;5033852;28;20454;-49
2024/01/14 01:59:24;;;;;;;10.37;1.43;;;4.10;99.90;;;;;;5033945;28;20528;-49
2024/01/14 02:01:51;;;;;;;8.97;1.63;;;4.00;99.90;;;;;;5033583;28;20950;-49
2024/01/14 02:04:18;;;;;;;8.90;1.43;;;3.90;99.90;;;;;;5034018;28;20772;-51
2024/01/14 02:06:44;;;;;;;7.40;1.53;;;3.80;71.20;;;;;;5033684;28;20433;-49
2024/01/14 02:09:10;;;;;;;10.23;1.30;;;3.80;99.90;;;;;;5033567;28;20469;-49
2024/01/14 02:11:36;;;;;;;4.77;1.63;;;3.80;1.00;;;;;;5033270;28;20176;-49
2024/01/14 02:14:05;;;;;;;13.83;2.00;;;3.90;99.90;;;;;;5033579;28;20780;-49
2024/01/14 02:16:31;;;;;;;3.70;1.20;;;3.90;1.00;;;;;;5033344;28;20489;-50
2024/01/14 02:18:57;;;;;;;9.63;1.67;;;4.10;1.00;;;;;;5033516;28;20515;-50
2024/01/14 02:21:26;;;;;;;9.00;1.60;;;4.20;89.90;;;;;;5033290;28;20207;-50
2024/01/14 02:24:17;;;;;;;8.63;1.43;;;4.60;61.90;;;;;;5032935;28;20698;-50
2024/01/14 02:26:43;;;;;;;11.13;1.30;;;4.70;1.00;;;;;;5029659;28;20437;-49
2024/01/14 02:29:10;;;;;;;13.83;1.40;;;4.40;15.50;;;;;;5033168;28;20421;-49
2024/01/14 02:31:36;;;;;;;12.47;1.37;;;4.20;99.90;;;;;;5033244;28;20190;-50
2024/01/14 02:34:03;;;;;;;3.03;1.20;;;4.00;1.00;;;;;;5032895;28;20413;-49
2024/01/14 02:36:29;;;;;;;3.40;1.10;;;4.20;99.90;;;;;;5033557;28;20242;-49
2024/01/14 02:38:54;;;;;;;6.80;1.83;;;4.00;99.90;;;;;;5032938;28;20448;-49
2024/01/14 02:41:20;;;;;;;8.53;1.73;;;3.90;99.90;;;;;;5032672;28;20180;-49
2024/01/14 02:43:45;;;;;;;7.70;1.20;;;4.00;1.00;;;;;;5032915;28;20247;-49
2024/01/14 02:46:11;;;;;;;7.67;1.50;;;3.80;1.00;;;;;;5033023;28;20209;-49
2024/01/14 02:48:36;;;;;;;9.07;1.10;;;3.80;1.00;;;;;;5032737;28;20176;-50
2024/01/14 02:51:02;;;;;;;8.10;1.40;;;4.00;1.00;;;;;;5032655;28;20274;-49
2024/01/14 02:53:28;;;;;;;15.70;2.30;;;4.00;92.30;;;;;;5032842;28;20190;-49
2024/01/14 02:55:53;;;;;;;14.27;2.23;;;3.90;1.00;;;;;;5032534;28;20210;-49
2024/01/14 02:58:19;;;;;;;12.97;2.00;;;3.90;99.90;;;;;;5032740;28;20537;-50
2024/01/14 03:00:46;;;;;;;14.70;2.00;;;3.90;99.90;;;;;;5032375;28;20525;-50
2024/01/14 03:03:14;;;;;;;9.73;1.97;;;3.70;99.90;;;;;;5032607;28;20185;-49
2024/01/14 03:05:39;;;;;;;6.40;2.33;;;3.60;1.00;;;;;;5032486;28;20460;-49
2024/01/14 03:08:05;;;;;;;13.40;1.67;;;3.70;1.00;;;;;;5032381;28;20498;-49
2024/01/14 03:10:30;;;;;;;13.60;2.13;;;3.70;1.00;;;;;;5032909;28;20184;-49
2024/01/14 03:12:56;;;;;;;12.67;1.80;;;3.70;1.00;;;;;;5032470;28;20187;-50
2024/01/14 03:15:22;;;;;;;7.90;2.00;;;3.60;99.90;;;;;;5032560;28;20213;-49
2024/01/14 03:17:47;;;;;;;10.37;1.67;;;3.50;99.90;;;;;;5032349;28;20681;-49
2024/01/14 03:20:13;;;;;;;16.30;2.27;;;3.50;99.90;;;;;;5032485;28;20635;-49
2024/01/14 03:22:38;;;;;;;9.40;2.00;;;3.60;1.00;;;;;;5032192;28;20649;-49
2024/01/14 03:25:04;;;;;;;15.27;2.73;;;3.70;1.00;;;;;;5032151;28;20190;-50
2024/01/14 03:27:30;;;;;;;17.13;2.13;;;3.70;85.10;;;;;;5032224;28;20574;-50
2024/01/14 03:29:55;;;;;;;14.10;2.13;;;3.80;99.90;;;;;;5031996;28;20418;-50
2024/01/14 03:32:21;;;;;;;20.27;2.77;;;3.90;99.90;;;;;;5032337;28;20188;-49
2024/01/14 03:34:47;;;;;;;15.53;3.13;;;3.80;1.00;;;;;;5032215;28;20512;-49
2024/01/14 03:37:12;;;;;;;12.73;2.30;;;3.80;1.00;;;;;;5032221;28;20375;-49
2024/01/14 03:39:38;;;;;;;20.57;1.90;;;3.70;1.00;;;;;;5032066;28;20274;-49
2024/01/14 03:42:03;;;;;;;4.90;1.37;;;3.70;1.00;;;;;;5031979;28;20195;-50
2024/01/14 03:44:29;;;;;;;11.07;2.00;;;3.70;1.00;;;;;;5032239;28;20186;-49
2024/01/14 03:46:54;;;;;;;14.77;2.30;;;3.70;1.00;;;;;;5032037;28;20190;-49
2024/01/14 03:49:20;;;;;;;12.73;2.10;;;3.70;99.90;;;;;;5032027;28;20179;-51
2024/01/14 03:51:45;;;;;;;16.57;2.17;;;3.70;1.00;;;;;;5031934;28;20207;-49
2024/01/14 03:54:11;;;;;;;7.30;1.90;;;3.70;99.90;;;;;;5031807;28;20187;-50
2024/01/14 03:56:36;;;;;;;17.43;1.87;;;3.80;1.00;;;;;;5031703;28;20214;-50
2024/01/14 03:59:02;;;;;;;7.63;1.77;;;4.00;99.90;;;;;;5032254;28;20177;-53
2024/01/14 04:01:28;;;;;;;8.63;1.60;;;4.30;1.00;;;;;;5032272;28;20179;-49
2024/01/14 04:03:53;;;;;;;6.67;2.10;;;4.60;99.90;;;;;;5031623;28;20540;-49
2024/01/14 04:06:20;;;;;;;13.07;2.50;;;4.80;99.90;;;;;;5031945;28;20181;-49
2024/01/14 04:08:46;;;;;;;11.37;1.77;;;4.70;1.00;;;;;;5033401;28;20614;-49
2024/01/14 04:11:12;;;;;;;10.33;1.80;;;4.60;99.90;;;;;;5035995;28;20418;-49
2024/01/14 04:13:37;;;;;;;11.03;1.80;;;4.50;99.90;;;;;;5035410;28;20209;-49
2024/01/14 04:16:03;;;;;;;10.33;1.73;;;4.40;19.40;;;;;;5035499;28;20218;-49
2024/01/14 04:18:29;;;;;;;7.00;1.40;;;4.50;1.00;;;;;;5035827;28;20804;-48
2024/01/14 04:20:55;;;;;;;13.27;1.77;;;4.60;99.90;;;;;;5035911;28;20223;-49
2024/01/14 04:23:20;;;;;;;14.30;2.60;;;4.50;1.00;;;;;;5035710;28;20249;-49
2024/01/14 04:25:46;;;;;;;9.33;1.60;;;4.30;1.00;;;;;;5035666;28;20414;-49
2024/01/14 04:28:11;;;;;;;11.20;1.43;;;4.20;94.10;;;;;;5035341;28;20179;-49
2024/01/14 04:30:37;;;;;;;5.37;1.47;;;4.40;99.90;;;;;;5035587;28;20183;-48
2024/01/14 04:33:03;;;;;;;6.80;2.03;;;4.50;1.00;;;;;;5034190;28;20218;-49
2024/01/14 04:35:28;;;;;;;17.13;1.50;;;4.40;1.00;;;;;;5035584;28;20297;-48
2024/01/14 04:37:54;;;;;;;12.47;1.63;;;4.50;1.00;;;;;;5035127;28;20241;-48
2024/01/14 04:40:19;;;;;;;6.43;1.37;;;4.30;99.90;;;;;;5034994;28;20186;-48
2024/01/14 04:42:45;;;;;;;10.40;1.60;;;4.20;1.00;;;;;;5034863;28;20673;-49
2024/01/14 04:45:10;;;;;;;5.77;1.30;;;4.10;45.10;;;;;;5035064;28;20538;-50
2024/01/14 04:47:36;;;;;;;22.50;2.37;;;3.90;99.90;;;;;;5035139;28;20549;-49
2024/01/14 04:50:01;;;;;;;7.60;1.50;;;3.90;1.00;;;;;;5035603;28;20303;-49
2024/01/14 04:52:27;;;;;;;6.97;1.70;;;4.00;99.90;;;;;;5035161;28;20241;-49
2024/01/14 04:54:53;;;;;;;21.47;2.33;;;4.10;99.90;;;;;;5034668;28;20197;-50
2024/01/14 04:57:18;;;;;;;9.23;2.03;;;4.00;99.90;;;;;;5035056;28;20274;-49
2024/01/14 04:59:44;;;;;;;13.67;2.00;;;3.90;28.20;;;;;;5034672;28;20189;-49
2024/01/14 05:02:10;;;;;;;9.83;1.93;;;4.00;1.00;;;;;;5034091;28;20578;-49
2024/01/14 05:04:35;;;;;;;11.97;2.00;;;4.10;1.00;;;;;;5034988;28;20433;-49
2024/01/14 05:07:01;;;;;;;9.20;1.70;;;4.00;1.00;;;;;;5035010;28;20219;-49
2024/01/14 05:09:26;;;;;;;13.03;1.60;;;3.90;99.90;;;;;;5035091;28;20246;-49
2024/01/14 05:11:52;;;;;;;8.83;2.97;;;4.00;99.90;;;;;;5034653;28;20188;-48
2024/01/14 05:14:18;;;;;;;11.37;1.60;;;4.20;1.00;;;;;;5034603;28;20190;-48
2024/01/14 05:16:44;;;;;;;9.60;1.53;;;4.30;1.00;;;;;;5034258;28;20224;-48
2024/01/14 05:19:09;;;;;;;12.33;3.53;;;4.30;99.90;;;;;;5034026;28;20505;-49
2024/01/14 05:21:35;;;;;;;3.43;1.27;;;4.40;99.90;;;;;;5033847;28;20207;-50
2024/01/14 05:24:01;;;;;;;10.80;1.80;;;4.30;99.90;;;;;;5034505;28;20534;-48
2024/01/14 05:26:26;;;;;;;12.90;1.50;;;4.60;1.00;;;;;;5033899;28;20445;-48
2024/01/14 05:28:54;;;;;;;6.00;1.60;;;4.80;99.90;;;;;;5034360;28;20183;-49
2024/01/14 05:31:20;;;;;;;7.07;2.10;;;4.70;99.90;;;;;;5034144;28;20190;-49
2024/01/14 05:33:45;;;;;;;13.33;1.60;;;4.90;99.90;;;;;;5033868;28;20793;-49
2024/01/14 05:36:11;;;;;;;13.33;2.00;;;4.80;99.90;;;;;;5034225;28;20239;-48
2024/01/14 05:38:36;;;;;;;6.80;1.53;;;4.80;99.90;;;;;;5034239;28;20194;-49
2024/01/14 05:41:02;;;;;;;7.67;1.93;;;4.80;99.90;;;;;;5034584;28;20207;-49
2024/01/14 05:43:27;;;;;;;9.60;1.60;;;4.70;1.00;;;;;;5033805;28;20176;-49
2024/01/14 05:45:53;;;;;;;8.90;2.20;;;4.70;1.00;;;;;;5033985;28;20203;-47
2024/01/14 05:48:19;;;;;;;13.00;1.80;;;4.90;1.00;;;;;;5033951;28;20272;-48
2024/01/14 05:50:45;;;;;;;9.60;1.73;;;4.80;1.00;;;;;;5033577;28;20180;-48
2024/01/14 05:53:10;;;;;;;9.30;1.83;;;4.60;99.90;;;;;;5033449;28;20425;-48
2024/01/14 05:55:36;;;;;;;14.90;1.70;;;4.60;1.00;;;;;;5033693;28;20214;-49
2024/01/14 05:58:01;;;;;;;7.93;1.90;;;4.60;19.40;;;;;;5033889;28;20190;-48
2024/01/14 06:00:27;;;;;;;13.90;1.90;;;4.70;1.00;;;;;;5032207;28;20273;-48
2024/01/14 06:02:53;;;;;;;10.33;1.50;;;4.60;99.90;;;;;;5033743;28;20185;-48
2024/01/14 06:05:18;;;;;;;8.33;1.57;;;4.60;1.00;;;;;;5033353;28;20240;-49
2024/01/14 06:07:44;;;;;;;10.50;1.90;;;4.60;1.00;;;;;;5033159;28;20188;-48
2024/01/14 06:10:09;;;;;;;8.60;2.10;;;4.70;1.00;;;;;;5033246;28;20213;-49
2024/01/14 06:12:35;;;;;;;6.53;2.40;;;4.80;99.90;;;;;;5033660;28;20179;-49
2024/01/14 06:15:00;;;;;;;12.47;1.80;;;4.70;99.90;;;;;;5033583;28;20274;-48
2024/01/14 06:17:26;;;;;;;11.00;2.10;;;4.70;99.90;;;;;;5033372;28;20215;-49
2024/01/14 06:19:51;;;;;;;10.17;1.93;;;4.70;99.90;;;;;;5032811;28;20260;-49
2024/01/14 06:22:17;;;;;;;9.30;1.80;;;4.60;99.90;;;;;;5033430;28;20175;-48
2024/01/14 06:24:45;;;;;;;19.17;1.93;;;4.50;99.90;;;;;;5033483;28;20183;-48
2024/01/14 06:27:10;;;;;;;11.03;2.00;;;4.50;99.90;;;;;;5033346;28;20190;-48
2024/01/14 06:29:36;;;;;;;10.43;2.00;;;4.70;1.00;;;;;;5032852;28;21056;-50
2024/01/14 06:32:01;;;;;;;8.07;2.23;;;4.60;99.90;;;;;;5032676;28;20174;-49
2024/01/14 06:34:27;;;;;;;9.20;1.80;;;4.80;1.00;;;;;;5033290;28;20199;-49
2024/01/14 06:36:52;;;;;;;15.23;2.50;;;4.80;99.90;;;;;;5033127;28;20563;-48
2024/01/14 06:39:18;;;;;;;13.27;2.57;;;4.70;99.90;;;;;;5033104;28;20244;-50
2024/01/14 06:41:44;;;;;;;7.40;1.50;;;4.70;99.90;;;;;;5033225;28;20188;-48
2024/01/14 06:44:09;;;;;;;9.23;1.77;;;4.70;99.90;;;;;;5032750;28;20564;-49
2024/01/14 06:46:40;;;;;;;6.20;1.57;;;4.70;99.90;;;;;;5032964;28;20526;-49
2024/01/14 06:49:06;;;;;;;16.97;2.80;;;4.70;99.90;;;;;;5029648;28;20229;-51
2024/01/14 06:51:31;;;;;;;12.67;2.00;;;4.70;99.90;;;;;;5032865;28;20421;-49
2024/01/14 06:53:57;;;;;;;12.60;2.30;;;4.80;99.90;;;;;;5032477;28;20226;-49
2024/01/14 06:56:22;;;;;;;8.23;2.03;;;5.00;99.90;;;;;;5032480;28;20212;-49
2024/01/14 06:58:50;;;;;;;13.60;1.90;;;4.80;99.90;;;;;;5032897;28;20188;-49
2024/01/14 07:01:15;;;;;;;12.10;1.90;;;4.90;99.90;;;;;;5032510;28;20198;-49
2024/01/14 07:03:41;;;;;;;6.93;1.60;;;4.90;99.90;;;;;;5032509;28;20414;-49
2024/01/14 07:06:06;;;;;;;8.93;2.00;;;4.70;99.90;;;;;;5032376;28;20179;-52
2024/01/14 07:08:32;;;;;;;14.23;1.50;;;4.50;99.90;;;;;;5032504;28;20314;-49
2024/01/14 07:11:00;;;;;;;12.57;2.50;;;4.40;1.00;;;;;;5032010;28;20270;-49
2024/01/14 07:13:26;;;;;;;13.80;1.73;;;4.30;99.90;;;;;;5032393;28;20187;-49
2024/01/14 07:15:51;;;;;;;16.70;2.40;;;4.20;99.90;;;;;;5032410;28;20480;-48
2024/01/14 07:18:17;;;;;;;11.57;1.80;;;4.20;1.00;;;;;;5032076;28;20182;-48
2024/01/14 07:20:42;;;;;;;11.57;1.67;;;4.20;99.90;;;;;;5032463;28;20190;-49
2024/01/14 07:23:08;;;;;;;16.60;2.50;;;4.20;1.00;;;;;;5031852;28;20179;-49
2024/01/14 07:25:33;;;;;;;3.67;1.30;;;4.30;1.00;;;;;;5032448;28;20190;-48
2024/01/14 07:27:59;;;;;;;10.23;1.70;;;4.40;1.00;;;;;;5032022;28;20178;-49
2024/01/14 07:30:24;;;;;;;8.47;2.40;;;4.40;1.00;;;;;;5031949;28;20185;-48
2024/01/14 07:32:50;;;;;;;14.33;1.70;;;4.50;1.00;;;;;;5032041;28;20183;-49
2024/01/14 07:35:15;;;;;;;8.27;1.57;;;4.50;1.00;;;;;;5032233;28;20219;-49
2024/01/14 07:37:41;;;;;;;12.27;2.40;;;4.50;99.90;;;;;;5032282;28;20195;-49
2024/01/14 07:40:07;;;;;;;13.03;1.90;;;4.40;99.90;;;;;;5032153;28;20677;-49
2024/01/14 07:42:32;;;;;;;6.50;1.70;;;4.40;1.00;;;;;;5031558;28;20219;-49
2024/01/14 07:44:58;;;;;;;13.93;1.83;;;4.60;1.00;;;;;;5031986;28;20933;-49
2024/01/14 07:47:23;;;;;;;8.77;1.43;;;4.70;99.90;;;;;;5030773;28;20229;-49
2024/01/14 07:49:49;;;;;;;10.53;2.43;;;4.80;1.00;;;;;;5031633;28;20182;-49
2024/01/14 07:52:16;;;;;;;13.83;2.20;;;4.70;99.90;;;;;;5032046;28;20632;-49
2024/01/14 07:54:42;;;;;;;14.73;1.30;;;4.60;99.90;;;;;;5031814;28;20668;-49
2024/01/14 07:57:07;;;;;;;6.53;1.63;;;4.50;99.90;;;;;;5031928;28;20457;-50
2024/01/14 07:59:33;;;;;;;8.33;1.70;;;4.40;99.90;;;;;;5031788;28;20199;-50
2024/01/14 08:01:58;;;;;;;14.70;2.23;;;4.60;1.00;;;;;;5032168;28;20202;-49
2024/01/14 08:04:24;;;;;;;6.60;1.63;;;5.00;1.00;;;;;;5031954;28;20687;-50
2024/01/14 08:06:49;;;;;;;13.57;1.50;;;5.30;99.90;;;;;;5032082;28;20622;-49
2024/01/14 08:09:15;;;;;;;10.43;1.70;;;5.50;99.90;;;;;;5031569;28;20701;-51
2024/01/14 08:11:41;;;;;;;15.20;2.10;;;5.60;99.90;;;;;;5031627;28;20180;-49
2024/01/14 08:14:06;;;;;;;9.83;1.70;;;5.40;99.90;;;;;;5031815;28;20188;-49
2024/01/14 08:16:32;;;;;;;11.23;2.20;;;5.50;99.90;;;;;;5032166;28;20212;-48
2024/01/14 08:18:57;;;;;;;5.53;1.53;;;5.50;99.90;;;;;;5031992;28;20214;-48
2024/01/14 08:21:23;;;;;;;8.33;1.30;;;5.30;99.90;;;;;;5031558;28;20183;-49
2024/01/14 08:23:48;;;;;;;6.83;1.53;;;5.30;99.90;;;;;;5031758;28;20183;-49
2024/01/14 08:26:14;;;;;;;5.00;1.57;;;5.20;99.90;;;;;;5031779;28;20282;-49
2024/01/14 08:28:40;;;;;;;7.90;1.90;;;5.30;99.90;;;;;;5031419;28;20215;-48
2024/01/14 08:31:05;;;;;;;7.37;1.43;;;5.10;99.90;;;;;;5031821;28;20269;-49
2024/01/14 08:33:31;;;;;;;7.33;1.30;;;4.90;99.90;;;;;;5030620;28;20187;-48
2024/01/14 08:35:57;;;;;;;11.20;2.00;;;4.90;99.90;;;;;;5031108;28;20620;-48
2024/01/14 08:38:24;;;;;;;13.53;3.10;;;4.80;99.90;;;;;;5031087;28;20183;-49
2024/01/14 08:40:53;;;;;;;13.93;2.40;;;4.80;99.90;;;;;;5031440;28;20262;-49
2024/01/14 08:43:19;;;;;;;14.30;2.50;;;4.70;99.90;;;;;;5031736;28;20442;-48
2024/01/14 08:45:44;;;;;;;8.63;1.80;;;4.80;99.90;;;;;;5031022;28;20840;-48
2024/01/14 08:48:13;;;;;;;13.17;1.90;;;4.70;99.90;;;;;;5031219;28;20189;-49
2024/01/14 08:50:38;;;;;;;9.60;1.87;;;4.60;99.90;;;;;;5031630;28;20198;-50
2024/01/14 08:53:04;;;;;;;4.37;1.90;;;4.60;99.90;;;;;;5031434;28;20414;-49
2024/01/14 08:55:30;;;;;;;5.83;1.40;;;4.60;99.90;;;;;;5034255;28;20237;-48
2024/01/14 08:57:55;;;;;;;8.70;2.23;;;4.80;1.00;;;;;;5035134;28;20191;-49
2024/01/14 09:00:21;;;;;;;14.30;2.40;;;5.00;99.90;;;;;;5034866;28;20484;-49
2024/01/14 09:02:47;;;;;;;6.30;1.50;;;5.00;99.90;;;;;;5034747;28;20671;-49
2024/01/14 09:05:12;;;;;;;3.63;1.50;;;5.00;99.90;;;;;;5034290;28;20226;-49
2024/01/14 09:07:38;;;;;;;9.70;1.87;;;4.90;99.90;;;;;;5034381;28;20175;-49
2024/01/14 09:10:05;;;;;;;10.30;2.20;;;4.80;99.90;;;;;;5034791;28;20179;-48
2024/01/14 09:12:30;;;;;;;11.40;2.00;;;4.70;99.90;;;;;;5034362;28;20639;-48
2024/01/14 09:14:56;;;;;;;5.73;1.77;;;4.60;99.90;;;;;;5034653;28;20417;-49
2024/01/14 09:17:22;;;;;;;7.83;1.83;;;4.40;99.90;;;;;;5034499;28;20237;-49
2024/01/14 09:19:47;;;;;;;13.53;2.90;;;4.30;99.90;;;;;;5034592;28;20622;-49
2024/01/14 09:22:13;;;;;;;8.03;2.10;;;4.40;99.90;;;;;;5034777;28;20195;-49
2024/01/14 09:24:43;;;;;;;15.73;2.80;;;4.60;1.00;;;;;;5034356;28;20632;-49
2024/01/14 09:27:09;;;;;;;13.63;2.70;;;4.70;99.90;;;;;;5034402;28;20179;-48
2024/01/14 09:29:34;;;;;;;9.43;2.40;;;4.80;99.90;;;;;;5034703;28;20819;-48
2024/01/14 09:32:00;;;;;;;10.27;1.90;;;4.90;99.90;;;;;;5034305;28;20219;-48
2024/01/14 09:34:25;;;;;;;11.90;2.50;;;5.00;99.90;;;;;;5034270;28;20186;-48
2024/01/14 09:36:51;;;;;;;7.90;1.93;;;4.90;99.90;;;;;;5034369;28;20214;-49
2024/01/14 09:39:16;;;;;;;11.03;2.30;;;4.70;99.90;;;;;;5034119;28;20187;-50
2024/01/14 09:41:51;;;;;;;8.50;1.80;;;4.50;99.90;;;;;;5034220;28;20209;-49
2024/01/14 09:44:16;;;;;;;13.77;2.47;;;4.60;99.90;;;;;;5033888;28;20611;-49
2024/01/14 09:46:47;;;;;;;7.43;2.30;;;4.60;99.90;;;;;;5034033;28;20428;-50
2024/01/14 09:49:15;;;;;;;9.47;1.80;;;4.60;99.90;;;;;;5034081;28;20182;-49
2024/01/14 09:51:40;;;;;;;8.67;2.00;;;4.60;99.90;;;;;;5033708;28;20457;-49
2024/01/14 09:54:06;;;;;;;5.63;1.80;;;4.70;99.90;;;;;;5033948;28;20453;-49
2024/01/14 09:56:33;;;;;;;10.77;1.73;;;4.90;99.90;;;;;;5033836;28;20214;-50
2024/01/14 09:59:01;;;;;;;9.10;2.27;;;4.90;99.90;;;;;;5033779;28;20222;-49
2024/01/14 10:01:31;;;;;;;6.90;2.07;;;5.00;99.90;;;;;;5033803;28;20418;-49
2024/01/14 10:04:00;;;;;;;15.70;3.17;;;5.00;99.90;;;;;;5033502;28;21016;-49
2024/01/14 10:06:26;;;;;;;11.70;2.47;;;4.80;99.90;;;;;;5033094;28;20429;-50
2024/01/14 10:08:52;;;;;;;8.33;2.33;;;4.80;1.00;;;;;;5032967;28;20476;-49
2024/01/14 10:11:17;;;;;;;10.63;2.67;;;4.90;99.90;;;;;;5032392;28;20417;-49
2024/01/14 10:13:43;;;;;;;6.03;1.90;;;5.00;99.90;;;;;;5032604;28;20196;-53
2024/01/14 10:16:12;;;;;;;7.33;2.63;;;5.10;99.90;;;;;;5033311;28;20207;-51
2024/01/14 10:18:38;;;;;;;8.60;2.17;;;5.10;99.90;;;;;;5033537;28;20854;-49
2024/01/14 10:21:04;;;;;;;11.00;1.83;;;5.20;99.90;;;;;;5032923;28;20416;-48
2024/01/14 10:23:31;;;;;;;6.47;1.93;;;5.20;99.90;;;;;;5032187;28;20277;-49
2024/01/14 10:26:01;;;;;;;7.20;2.30;;;5.20;99.90;;;;;;5032039;28;20514;-49
2024/01/14 10:28:37;;;;;;;8.13;2.40;;;5.40;99.90;;;;;;5033387;28;20414;-50
2024/01/14 10:31:04;;;;;;;5.40;1.90;;;5.40;99.90;;;;;;5033025;28;20417;-49
2024/01/14 10:33:34;;;;;;;8.10;2.43;;;5.30;99.90;;;;;;5032716;28;20428;-55
2024/01/14 10:36:00;;;;;;;8.00;2.07;;;5.10;99.90;;;;;;5032710;28;21055;-51
2024/01/14 10:38:26;;;;;;;5.47;2.07;;;4.80;99.90;;;;;;5033033;28;20418;-51
2024/01/14 10:40:52;;;;;;;11.93;2.33;;;4.60;99.90;;;;;;5033012;28;20478;-51
2024/01/14 10:43:18;;;;;;;9.07;2.33;;;4.50;99.90;;;;;;5031666;28;20179;-51
2024/01/14 10:45:48;;;;;;;6.50;1.93;;;4.30;99.90;;;;;;5032987;28;20422;-51
2024/01/14 10:48:19;;;;;;;6.13;2.00;;;4.30;99.90;;;;;;5031730;28;20813;-51
2024/01/14 10:50:52;;;;;;;11.03;2.53;;;4.30;99.90;;;;;;5032438;28;20909;-51
2024/01/14 10:53:26;;;;;;;11.07;2.00;;;4.30;99.90;;;;;;5032825;28;20409;-50
2024/01/14 10:56:10;;;;;;;12.47;1.97;;;4.20;99.90;;;;;;5032336;28;20473;-51
2024/01/14 10:58:41;;;;;;;9.00;1.90;;;4.10;99.90;;;;;;5032150;28;20861;-51
2024/01/14 11:01:10;;;;;;;15.63;3.50;;;4.00;99.90;;;;;;5033069;28;20446;-50
2024/01/14 11:03:37;;;;;;;8.53;2.20;;;4.00;1.00;;;;;;5032837;28;20810;-50
2024/01/14 11:06:04;;;;;;;7.73;2.10;;;4.00;1.00;;;;;;5032699;28;20418;-51
2024/01/14 11:08:31;;;;;;;8.63;2.23;;;4.00;1.00;;;;;;5032321;28;20477;-51
2024/01/14 11:10:57;;;;;;;12.90;2.50;;;3.90;1.00;;;;;;5032187;28;20422;-51
2024/01/14 11:13:25;;;;;;;8.13;1.97;;;3.80;1.00;;;;;;5032377;28;20421;-51
2024/01/14 11:16:02;;;;;;;4.93;1.70;;;3.80;13.40;;;;;;5032306;28;20210;-52
2024/01/14 11:18:38;;;;;;;11.83;2.20;;;3.70;99.90;;;;;;5030879;28;20410;-51
2024/01/14 11:21:20;;;;;;;10.60;2.27;;;3.80;99.90;;;;;;5031789;28;20424;-51
2024/01/14 11:23:46;;;;;;;19.57;2.13;;;3.90;99.90;;;;;;5031609;28;20430;-51
2024/01/14 11:26:11;;;;;;;5.17;2.10;;;3.80;99.90;;;;;;5031035;28;20418;-51
2024/01/14 11:28:37;;;;;;;8.10;1.73;;;3.70;99.90;;;;;;5032214;28;20629;-51
2024/01/14 11:31:03;;;;;;;9.77;2.70;;;3.70;99.90;;;;;;5030948;28;20541;-51
2024/01/14 11:33:46;;;;;;;6.43;2.07;;;3.70;99.90;;;;;;5031524;28;20188;-51
2024/01/14 11:36:12;;;;;;;16.07;2.23;;;3.70;99.90;;;;;;5031827;28;20489;-51
2024/01/14 11:38:54;;;;;;;10.57;2.10;;;3.70;99.90;;;;;;5031417;28;20428;-51
2024/01/14 11:41:30;;;;;;;5.60;1.70;;;3.60;1.00;;;;;;5030873;28;20444;-51
2024/01/14 11:44:03;;;;;;;8.90;2.30;;;3.70;1.00;;;;;;5031342;28;20887;-51
2024/01/14 11:46:47;;;;;;;6.73;1.50;;;3.70;99.90;;;;;;5031780;28;20406;-52
2024/01/14 11:49:22;;;;;;;8.10;2.30;;;3.70;99.90;;;;;;5031209;28;20434;-50
2024/01/14 11:51:54;;;;;;;4.70;2.27;;;3.80;99.90;;;;;;5032136;28;20414;-50
2024/01/14 11:54:22;;;;;;;6.10;1.77;;;3.80;99.90;;;;;;5032119;28;20776;-51
2024/01/14 11:56:48;;;;;;;8.13;2.27;;;3.80;99.90;;;;;;5031974;28;20462;-51
2024/01/14 11:59:13;;;;;;;14.37;1.80;;;3.80;99.90;;;;;;5031462;28;20427;-51
2024/01/14 12:01:39;;;;;;;7.03;2.00;;;3.80;99.90;;;;;;5031923;28;20192;-52
2024/01/14 12:04:09;;;;;;;3.13;1.87;;;3.80;99.90;;;;;;5032029;28;20326;-51
2024/01/14 12:06:39;;;;;;;14.50;2.37;;;3.90;97.00;;;;;;5032365;28;20449;-51
2024/01/14 12:09:06;;;;;;;3.23;1.50;;;4.10;99.90;;;;;;5030395;28;20512;-51
2024/01/14 12:11:33;;;;;;;12.23;2.23;;;4.30;1.00;;;;;;5031521;28;20431;-52
2024/01/14 12:13:59;;;;;;;8.57;2.07;;;4.40;1.00;;;;;;5031339;28;20433;-49
2024/01/14 12:16:24;;;;;;;6.40;2.00;;;4.70;1.00;;;;;;5031147;28;20457;-49
2024/01/14 12:18:50;;;;;;;7.47;1.73;;;5.10;99.90;;;;;;5031157;28;20556;-50
2024/01/14 12:21:19;;;;;;;3.97;1.93;;;5.40;99.90;;;;;;5031631;28;20189;-50
2024/01/14 12:23:45;;;;;;;7.20;2.17;;;5.50;99.90;;;;;;5031559;28;20669;-49
2024/01/14 12:26:12;;;;;;;6.93;1.80;;;5.30;99.90;;;;;;5031393;28;20509;-49
2024/01/14 12:28:38;;;;;;;6.07;2.20;;;5.00;99.90;;;;;;5030846;28;20418;-50
2024/01/14 12:31:07;;;;;;;6.33;2.43;;;4.80;99.90;;;;;;5035290;28;20464;-51
2024/01/14 12:33:33;;;;;;;10.30;2.37;;;4.70;99.90;;;;;;5034929;28;20422;-50
2024/01/14 12:35:59;;;;;;;4.00;2.10;;;4.60;99.90;;;;;;5035171;28;20511;-49
2024/01/14 12:38:25;;;;;;;12.07;2.20;;;4.60;99.90;;;;;;5034375;28;20480;-49
2024/01/14 12:40:52;;;;;;;6.37;2.50;;;4.60;99.90;;;;;;5033413;28;20835;-50
2024/01/14 12:43:17;;;;;;;10.50;2.20;;;4.60;99.90;;;;;;5034765;28;20416;-49
2024/01/14 12:45:47;;;;;;;7.70;3.00;;;4.60;99.90;;;;;;5034919;28;20429;-49
2024/01/14 12:48:20;;;;;;;6.57;3.10;;;4.80;1.00;;;;;;5035194;28;20187;-51
2024/01/14 12:50:46;;;;;;;8.10;2.30;;;5.00;99.90;;;;;;5034824;28;20460;-49
2024/01/14 12:53:13;;;;;;;9.73;2.93;;;5.00;99.90;;;;;;5034302;28;20422;-50